createdAt,value
2022-09-20T00:00:57.157Z,9.49
2022-09-20T00:01:57.080Z,9.52
2022-09-20T00:02:57.083Z,9.50
2022-09-20T00:03:57.051Z,9.52
2022-09-20T00:04:57.088Z,9.52
2022-09-20T00:05:57.083Z,9.53
2022-09-20T00:06:57.010Z,9.53
2022-09-20T00:07:56.991Z,9.52
2022-09-20T00:08:56.968Z,9.52
2022-09-20T00:09:56.969Z,9.53
2022-09-20T00:10:56.962Z,9.53
2022-09-20T00:11:56.950Z,9.53
2022-09-20T00:12:56.933Z,9.53
2022-09-20T00:13:56.933Z,9.53
2022-09-20T00:14:56.923Z,9.56
2022-09-20T00:15:56.899Z,9.53
2022-09-20T00:16:56.929Z,9.52
2022-09-20T00:17:56.858Z,9.52
2022-09-20T00:18:56.879Z,9.52
2022-09-20T00:19:56.864Z,9.49
2022-09-20T00:20:56.829Z,9.49
2022-09-20T00:21:56.809Z,9.49
2022-09-20T00:22:56.835Z,9.48
2022-09-20T00:23:56.810Z,9.49
2022-09-20T00:24:56.802Z,9.46
2022-09-20T00:25:56.763Z,9.46
2022-09-20T00:26:56.753Z,9.46
2022-09-20T00:27:56.741Z,9.45
2022-09-20T00:28:56.733Z,9.46
2022-09-20T00:29:56.721Z,9.43
2022-09-20T00:30:56.699Z,9.45
2022-09-20T00:31:56.712Z,9.43
2022-09-20T00:32:56.682Z,9.42
2022-09-20T00:33:56.672Z,9.40
2022-09-20T00:34:56.661Z,9.40
2022-09-20T00:35:56.639Z,9.39
2022-09-20T00:36:56.631Z,9.38
2022-09-20T00:37:56.632Z,9.38
2022-09-20T00:38:56.603Z,9.35
2022-09-20T00:39:56.685Z,9.34
2022-09-20T00:40:56.571Z,9.34
2022-09-20T00:41:56.564Z,9.35
2022-09-20T00:42:56.551Z,9.34
2022-09-20T00:43:56.541Z,9.32
2022-09-20T00:44:56.521Z,9.34
2022-09-20T00:45:56.579Z,9.32
2022-09-20T00:46:56.493Z,9.32
2022-09-20T00:47:56.482Z,9.31
2022-09-20T00:49:03.489Z,9.31
2022-09-20T00:49:56.459Z,9.30
2022-09-20T00:50:56.446Z,9.30
2022-09-20T00:51:56.445Z,9.30
2022-09-20T00:52:56.442Z,9.28
2022-09-20T00:53:56.428Z,9.27
2022-09-20T00:54:56.433Z,9.25
2022-09-20T00:55:56.435Z,9.25
2022-09-20T00:56:56.385Z,9.24
2022-09-20T00:57:56.399Z,9.23
2022-09-20T00:58:56.370Z,9.24
2022-09-20T00:59:56.341Z,9.20
2022-09-20T01:00:56.374Z,9.18
2022-09-20T01:01:56.419Z,9.20
2022-09-20T01:02:56.299Z,9.16
2022-09-20T01:03:56.447Z,9.16
2022-09-20T01:04:56.263Z,9.15
2022-09-20T01:05:56.275Z,9.15
2022-09-20T01:06:56.240Z,9.12
2022-09-20T01:07:56.234Z,9.12
2022-09-20T01:08:56.238Z,9.10
2022-09-20T01:09:56.209Z,9.10
2022-09-20T01:10:56.185Z,9.09
2022-09-20T01:11:56.191Z,9.10
2022-09-20T01:12:56.143Z,9.10
2022-09-20T01:13:56.130Z,9.12
2022-09-20T01:14:56.135Z,9.10
2022-09-20T01:15:56.146Z,9.10
2022-09-20T01:16:56.169Z,9.09
2022-09-20T01:17:56.078Z,9.09
2022-09-20T01:18:56.075Z,9.06
2022-09-20T01:19:56.085Z,9.05
2022-09-20T01:20:56.046Z,9.06
2022-09-20T01:21:56.035Z,9.05
2022-09-20T01:22:56.023Z,9.05
2022-09-20T01:23:56.015Z,9.05
2022-09-20T01:24:56.013Z,9.04
2022-09-20T01:25:56.023Z,9.04
2022-09-20T01:26:55.984Z,9.02
2022-09-20T01:27:55.974Z,9.02
2022-09-20T01:28:56.012Z,9.04
2022-09-20T01:29:55.965Z,9.02
2022-09-20T01:30:55.934Z,9.01
2022-09-20T01:31:55.946Z,8.99
2022-09-20T01:32:55.896Z,8.97
2022-09-20T01:33:55.886Z,8.97
2022-09-20T01:34:55.865Z,8.99
2022-09-20T01:35:55.865Z,8.97
2022-09-20T01:36:55.863Z,8.96
2022-09-20T01:37:55.835Z,8.97
2022-09-20T01:38:55.825Z,8.99
2022-09-20T01:39:55.938Z,8.99
2022-09-20T01:40:55.793Z,8.97
2022-09-20T01:41:55.775Z,8.97
2022-09-20T01:42:55.762Z,8.96
2022-09-20T01:43:55.857Z,8.97
2022-09-20T01:44:55.733Z,8.97
2022-09-20T01:45:55.757Z,8.97
2022-09-20T01:46:55.725Z,8.97
2022-09-20T01:47:55.707Z,8.97
2022-09-20T01:48:55.695Z,8.97
2022-09-20T01:49:55.693Z,8.96
2022-09-20T01:50:55.666Z,8.96
2022-09-20T01:51:55.665Z,8.94
2022-09-20T01:52:55.658Z,8.93
2022-09-20T01:53:55.652Z,8.97
2022-09-20T01:54:55.616Z,8.96
2022-09-20T01:55:55.604Z,8.94
2022-09-20T01:56:55.581Z,8.96
2022-09-20T01:57:55.614Z,8.94
2022-09-20T01:59:12.858Z,8.94
2022-09-20T01:59:56.574Z,8.93
2022-09-20T02:00:55.619Z,8.91
2022-09-20T02:01:55.613Z,8.94
2022-09-20T02:02:55.505Z,8.93
2022-09-20T02:03:55.483Z,8.93
2022-09-20T02:04:55.488Z,8.90
2022-09-20T02:05:55.527Z,8.90
2022-09-20T02:06:55.455Z,8.90
2022-09-20T02:07:55.444Z,8.88
2022-09-20T02:08:55.490Z,8.87
2022-09-20T02:09:55.446Z,8.87
2022-09-20T02:10:55.415Z,8.86
2022-09-20T02:11:55.428Z,8.86
2022-09-20T02:12:55.373Z,8.83
2022-09-20T02:13:55.377Z,8.81
2022-09-20T02:14:55.354Z,8.79
2022-09-20T02:15:55.330Z,8.79
2022-09-20T02:16:55.374Z,8.78
2022-09-20T02:17:55.318Z,8.76
2022-09-20T02:18:55.314Z,8.78
2022-09-20T02:19:55.285Z,8.73
2022-09-20T02:20:55.284Z,8.75
2022-09-20T02:21:55.264Z,8.75
2022-09-20T02:22:55.356Z,8.72
2022-09-20T02:23:55.253Z,8.71
2022-09-20T02:24:55.226Z,8.71
2022-09-20T02:25:55.224Z,8.71
2022-09-20T02:26:55.194Z,8.71
2022-09-20T02:27:55.184Z,8.69
2022-09-20T02:28:55.215Z,8.68
2022-09-20T02:29:55.162Z,8.68
2022-09-20T02:30:55.161Z,8.68
2022-09-20T02:31:55.228Z,8.68
2022-09-20T02:32:55.125Z,8.68
2022-09-20T02:33:55.132Z,8.68
2022-09-20T02:34:55.127Z,8.69
2022-09-20T02:35:55.094Z,8.69
2022-09-20T02:36:55.064Z,8.69
2022-09-20T02:37:55.055Z,8.68
2022-09-20T02:38:55.098Z,8.69
2022-09-20T02:39:55.043Z,8.71
2022-09-20T02:40:55.016Z,8.72
2022-09-20T02:41:55.005Z,8.72
2022-09-20T02:42:55.023Z,8.73
2022-09-20T02:43:54.975Z,8.76
2022-09-20T02:44:55.056Z,8.76
2022-09-20T02:45:55.000Z,8.78
2022-09-20T02:46:54.937Z,8.78
2022-09-20T02:47:54.922Z,8.79
2022-09-20T02:48:54.917Z,8.79
2022-09-20T02:49:54.946Z,8.79
2022-09-20T02:50:54.901Z,8.78
2022-09-20T02:51:54.914Z,8.78
2022-09-20T02:52:54.863Z,8.78
2022-09-20T02:53:54.893Z,8.76
2022-09-20T02:54:54.839Z,8.75
2022-09-20T02:55:54.819Z,8.78
2022-09-20T02:56:54.824Z,8.78
2022-09-20T02:57:54.795Z,8.78
2022-09-20T02:58:54.775Z,8.75
2022-09-20T02:59:54.797Z,8.75
2022-09-20T03:00:54.864Z,8.76
2022-09-20T03:01:54.844Z,8.75
2022-09-20T03:02:54.787Z,8.75
2022-09-20T03:03:54.717Z,8.75
2022-09-20T03:04:54.726Z,8.73
2022-09-20T03:05:54.698Z,8.75
2022-09-20T03:06:54.707Z,8.72
2022-09-20T03:07:54.710Z,8.75
2022-09-20T03:08:54.770Z,8.73
2022-09-20T03:09:54.633Z,8.75
2022-09-20T03:10:54.705Z,8.73
2022-09-20T03:11:54.616Z,8.73
2022-09-20T03:12:54.627Z,8.72
2022-09-20T03:13:54.620Z,8.72
2022-09-20T03:14:54.585Z,8.71
2022-09-20T03:15:54.556Z,8.68
2022-09-20T03:16:54.651Z,8.69
2022-09-20T03:17:54.549Z,8.66
2022-09-20T03:18:54.538Z,8.66
2022-09-20T03:19:54.587Z,8.66
2022-09-20T03:20:54.496Z,8.65
2022-09-20T03:21:54.500Z,8.65
2022-09-20T03:22:54.485Z,8.65
2022-09-20T03:23:54.489Z,8.60
2022-09-20T03:25:09.698Z,8.60
2022-09-20T03:25:54.458Z,8.58
2022-09-20T03:26:54.443Z,8.58
2022-09-20T03:27:54.418Z,8.57
2022-09-20T03:28:54.423Z,8.55
2022-09-20T03:29:54.398Z,8.55
2022-09-20T03:30:54.380Z,8.57
2022-09-20T03:31:54.462Z,8.54
2022-09-20T03:32:54.356Z,8.53
2022-09-20T03:33:54.326Z,8.48
2022-09-20T03:34:54.325Z,8.47
2022-09-20T03:35:54.309Z,8.48
2022-09-20T03:36:54.295Z,8.47
2022-09-20T03:37:54.307Z,8.47
2022-09-20T03:38:54.345Z,8.47
2022-09-20T03:39:54.255Z,8.45
2022-09-20T03:40:54.300Z,8.45
2022-09-20T03:41:54.257Z,8.47
2022-09-20T03:42:54.245Z,8.47
2022-09-20T03:43:54.238Z,8.45
2022-09-20T03:44:54.206Z,8.44
2022-09-20T03:45:54.298Z,8.45
2022-09-20T03:46:54.200Z,8.47
2022-09-20T03:47:54.184Z,8.47
2022-09-20T03:48:54.145Z,8.45
2022-09-20T03:49:54.133Z,8.45
2022-09-20T03:50:54.185Z,8.42
2022-09-20T03:51:54.106Z,8.42
2022-09-20T03:52:54.095Z,8.42
2022-09-20T03:53:54.095Z,8.44
2022-09-20T03:54:54.097Z,8.47
2022-09-20T03:55:54.084Z,8.47
2022-09-20T03:56:54.065Z,8.44
2022-09-20T03:57:54.030Z,8.40
2022-09-20T03:58:54.025Z,8.44
2022-09-20T03:59:54.026Z,8.45
2022-09-20T04:00:54.022Z,8.47
2022-09-20T04:01:53.995Z,8.47
2022-09-20T04:02:53.973Z,8.47
2022-09-20T04:03:53.964Z,8.45
2022-09-20T04:04:53.938Z,8.47
2022-09-20T04:05:53.935Z,8.48
2022-09-20T04:06:53.974Z,8.48
2022-09-20T04:07:53.923Z,8.48
2022-09-20T04:08:53.896Z,8.48
2022-09-20T04:09:53.896Z,8.47
2022-09-20T04:10:53.855Z,8.48
2022-09-20T04:11:53.896Z,8.50
2022-09-20T04:12:53.857Z,8.50
2022-09-20T04:13:53.834Z,8.53
2022-09-20T04:14:53.817Z,8.53
2022-09-20T04:15:53.797Z,8.53
2022-09-20T04:16:53.871Z,8.55
2022-09-20T04:17:53.793Z,8.55
2022-09-20T04:18:53.780Z,8.55
2022-09-20T04:19:53.747Z,8.57
2022-09-20T04:20:53.744Z,8.57
2022-09-20T04:21:53.754Z,8.58
2022-09-20T04:22:53.713Z,8.58
2022-09-20T04:23:53.793Z,8.60
2022-09-20T04:24:53.713Z,8.60
2022-09-20T04:25:53.690Z,8.60
2022-09-20T04:26:53.688Z,8.62
2022-09-20T04:27:53.647Z,8.65
2022-09-20T04:28:53.636Z,8.68
2022-09-20T04:29:53.637Z,8.69
2022-09-20T04:30:53.627Z,8.69
2022-09-20T04:31:54.357Z,8.71
2022-09-20T04:32:53.579Z,8.71
2022-09-20T04:33:53.576Z,8.73
2022-09-20T04:34:53.547Z,8.75
2022-09-20T04:35:53.559Z,8.75
2022-09-20T04:36:53.559Z,8.76
2022-09-20T04:37:53.528Z,8.78
2022-09-20T04:38:53.530Z,8.81
2022-09-20T04:39:53.518Z,8.84
2022-09-20T04:40:53.516Z,8.83
2022-09-20T04:41:53.469Z,8.84
2022-09-20T04:42:53.468Z,8.87
2022-09-20T04:43:53.474Z,8.93
2022-09-20T04:44:53.506Z,8.94
2022-09-20T04:45:53.458Z,8.97
2022-09-20T04:46:56.024Z,8.99
2022-09-20T04:47:53.467Z,9.02
2022-09-20T04:48:53.486Z,9.02
2022-09-20T04:49:53.390Z,9.05
2022-09-20T04:50:53.417Z,9.06
2022-09-20T04:51:53.408Z,9.09
2022-09-20T04:52:53.350Z,9.09
2022-09-20T04:53:53.351Z,9.09
2022-09-20T04:54:53.300Z,9.12
2022-09-20T04:55:53.297Z,9.15
2022-09-20T04:56:53.287Z,9.13
2022-09-20T04:57:53.277Z,9.15
2022-09-20T04:58:53.258Z,9.16
2022-09-20T04:59:53.236Z,9.18
2022-09-20T05:00:53.259Z,9.20
2022-09-20T05:01:53.257Z,9.18
2022-09-20T05:02:53.206Z,9.21
2022-09-20T05:03:53.215Z,9.21
2022-09-20T05:04:53.187Z,9.23
2022-09-20T05:05:53.159Z,9.23
2022-09-20T05:06:53.166Z,9.24
2022-09-20T05:07:53.134Z,9.24
2022-09-20T05:08:57.986Z,9.23
2022-09-20T05:09:54.131Z,9.23
2022-09-20T05:10:53.107Z,9.25
2022-09-20T05:11:53.082Z,9.24
2022-09-20T05:12:53.068Z,9.25
2022-09-20T05:13:53.168Z,9.25
2022-09-20T05:14:53.058Z,9.25
2022-09-20T05:15:53.072Z,9.25
2022-09-20T05:16:53.059Z,9.24
2022-09-20T05:17:52.996Z,9.23
2022-09-20T05:18:53.093Z,9.23
2022-09-20T05:19:53.005Z,9.21
2022-09-20T05:20:53.008Z,9.21
2022-09-20T05:21:52.959Z,9.23
2022-09-20T05:22:52.945Z,9.21
2022-09-20T05:23:52.930Z,9.23
2022-09-20T05:24:52.918Z,9.23
2022-09-20T05:25:52.915Z,9.24
2022-09-20T05:26:52.897Z,9.24
2022-09-20T05:27:52.909Z,9.24
2022-09-20T05:28:52.869Z,9.24
2022-09-20T05:29:52.888Z,9.24
2022-09-20T05:30:52.840Z,9.25
2022-09-20T05:31:52.884Z,9.27
2022-09-20T05:32:52.818Z,9.28
2022-09-20T05:33:52.824Z,9.30
2022-09-20T05:34:52.787Z,9.31
2022-09-20T05:35:52.766Z,9.35
2022-09-20T05:36:52.825Z,9.38
2022-09-20T05:37:52.748Z,9.39
2022-09-20T05:38:52.856Z,9.42
2022-09-20T05:39:52.730Z,9.43
2022-09-20T05:40:52.709Z,9.45
2022-09-20T05:41:52.719Z,9.46
2022-09-20T05:42:52.690Z,9.49
2022-09-20T05:43:52.734Z,9.53
2022-09-20T05:44:52.659Z,9.57
2022-09-20T05:45:52.736Z,9.63
2022-09-20T05:46:52.641Z,9.64
2022-09-20T05:47:52.672Z,9.66
2022-09-20T05:48:52.628Z,9.70
2022-09-20T05:49:52.588Z,9.73
2022-09-20T05:50:55.447Z,9.73
2022-09-20T05:51:52.567Z,9.78
2022-09-20T05:52:52.539Z,9.76
2022-09-20T05:53:52.567Z,9.81
2022-09-20T05:54:52.519Z,9.83
2022-09-20T05:55:52.516Z,9.83
2022-09-20T05:56:52.500Z,9.83
2022-09-20T05:57:52.500Z,9.89
2022-09-20T05:58:52.489Z,9.91
2022-09-20T05:59:52.469Z,9.96
2022-09-20T06:00:52.485Z,10.04
2022-09-20T06:01:52.439Z,10.09
2022-09-20T06:02:52.420Z,10.17
2022-09-20T06:03:52.429Z,10.21
2022-09-20T06:04:52.412Z,10.28
2022-09-20T06:05:52.389Z,10.36
2022-09-20T06:06:52.377Z,10.39
2022-09-20T06:07:52.367Z,10.46
2022-09-20T06:08:52.373Z,10.53
2022-09-20T06:09:52.338Z,10.65
2022-09-20T06:10:52.330Z,10.66
2022-09-20T06:11:52.326Z,10.74
2022-09-20T06:12:52.292Z,10.81
2022-09-20T06:13:52.287Z,10.86
2022-09-20T06:14:52.269Z,10.92
2022-09-20T06:15:52.355Z,10.92
2022-09-20T06:16:52.350Z,10.96
2022-09-20T06:17:52.258Z,10.98
2022-09-20T06:18:52.210Z,11.02
2022-09-20T06:19:52.210Z,11.06
2022-09-20T06:20:52.189Z,11.09
2022-09-20T06:21:52.198Z,11.09
2022-09-20T06:22:52.160Z,11.10
2022-09-20T06:23:52.234Z,11.16
2022-09-20T06:24:52.138Z,11.25
2022-09-20T06:25:52.129Z,11.32
2022-09-20T06:26:52.118Z,11.39
2022-09-20T06:27:52.110Z,11.47
2022-09-20T06:28:55.255Z,11.57
2022-09-20T06:29:53.081Z,11.59
2022-09-20T06:30:52.136Z,11.49
2022-09-20T06:31:52.060Z,11.47
2022-09-20T06:32:52.079Z,11.50
2022-09-20T06:33:52.029Z,11.49
2022-09-20T06:34:52.132Z,11.49
2022-09-20T06:35:54.729Z,11.49
2022-09-20T06:36:52.981Z,11.49
2022-09-20T06:37:52.042Z,11.49
2022-09-20T06:38:51.976Z,11.49
2022-09-20T06:39:51.952Z,11.47
2022-09-20T06:40:51.940Z,11.49
2022-09-20T06:41:51.921Z,11.54
2022-09-20T06:42:51.922Z,11.59
2022-09-20T06:43:51.911Z,11.59
2022-09-20T06:44:51.883Z,11.62
2022-09-20T06:45:51.938Z,11.72
2022-09-20T06:46:51.841Z,11.80
2022-09-20T06:47:51.839Z,11.85
2022-09-20T06:48:51.847Z,11.93
2022-09-20T06:49:58.809Z,12.06
2022-09-20T06:50:51.799Z,12.19
2022-09-20T06:51:51.781Z,12.29
2022-09-20T06:52:51.771Z,12.38
2022-09-20T06:53:51.837Z,12.30
2022-09-20T06:54:51.741Z,12.31
2022-09-20T06:55:51.731Z,12.29
2022-09-20T06:56:51.712Z,12.33
2022-09-20T06:57:51.731Z,12.38
2022-09-20T06:58:51.695Z,12.38
2022-09-20T06:59:51.710Z,12.39
2022-09-20T07:00:51.663Z,12.45
2022-09-20T07:01:51.704Z,12.46
2022-09-20T07:02:51.630Z,12.38
2022-09-20T07:03:51.630Z,12.37
2022-09-20T07:04:51.611Z,12.34
2022-09-20T07:05:51.599Z,12.38
2022-09-20T07:06:51.585Z,12.34
2022-09-20T07:07:51.572Z,12.27
2022-09-20T07:08:51.602Z,12.29
2022-09-20T07:09:51.551Z,12.33
2022-09-20T07:10:51.532Z,12.33
2022-09-20T07:11:51.522Z,12.41
2022-09-20T07:12:51.512Z,12.37
2022-09-20T07:13:51.524Z,12.20
2022-09-20T07:14:51.481Z,12.12
2022-09-20T07:15:51.466Z,12.05
2022-09-20T07:16:51.470Z,11.96
2022-09-20T07:17:51.441Z,11.87
2022-09-20T07:18:51.431Z,11.78
2022-09-20T07:19:51.439Z,11.80
2022-09-20T07:20:51.402Z,11.80
2022-09-20T07:21:51.391Z,11.77
2022-09-20T07:22:51.392Z,11.80
2022-09-20T07:23:51.440Z,11.85
2022-09-20T07:24:51.375Z,11.89
2022-09-20T07:25:51.375Z,11.94
2022-09-20T07:26:51.344Z,12.04
2022-09-20T07:27:51.353Z,12.08
2022-09-20T07:28:51.303Z,12.08
2022-09-20T07:29:51.313Z,12.12
2022-09-20T07:30:51.296Z,12.19
2022-09-20T07:31:51.320Z,12.24
2022-09-20T07:32:51.253Z,12.26
2022-09-20T07:33:51.242Z,12.30
2022-09-20T07:34:51.232Z,12.39
2022-09-20T07:35:51.222Z,12.45
2022-09-20T07:36:51.254Z,12.46
2022-09-20T07:37:51.194Z,12.52
2022-09-20T07:38:51.220Z,12.57
2022-09-20T07:39:51.185Z,12.56
2022-09-20T07:40:51.162Z,12.57
2022-09-20T07:41:51.165Z,12.56
2022-09-20T07:42:56.012Z,12.48
2022-09-20T07:43:52.123Z,12.49
2022-09-20T07:44:51.123Z,12.60
2022-09-20T07:45:51.172Z,12.67
2022-09-20T07:46:51.088Z,12.75
2022-09-20T07:47:51.073Z,12.74
2022-09-20T07:48:51.055Z,12.74
2022-09-20T07:49:51.053Z,12.75
2022-09-20T07:50:51.036Z,12.82
2022-09-20T07:51:51.016Z,12.87
2022-09-20T07:52:51.011Z,12.81
2022-09-20T07:53:51.024Z,12.75
2022-09-20T07:54:50.984Z,12.74
2022-09-20T07:55:50.981Z,12.77
2022-09-20T07:56:50.964Z,12.78
2022-09-20T07:57:50.947Z,12.79
2022-09-20T07:58:52.547Z,12.77
2022-09-20T07:59:50.916Z,12.69
2022-09-20T08:00:50.966Z,12.70
2022-09-20T08:01:50.995Z,12.79
2022-09-20T08:02:50.906Z,12.78
2022-09-20T08:03:50.915Z,12.63
2022-09-20T08:04:50.856Z,12.66
2022-09-20T08:05:50.918Z,12.62
2022-09-20T08:06:50.846Z,12.69
2022-09-20T08:07:50.824Z,12.79
2022-09-20T08:08:50.925Z,12.87
2022-09-20T08:09:50.817Z,12.97
2022-09-20T08:10:50.774Z,12.93
2022-09-20T08:11:50.775Z,12.96
2022-09-20T08:14:08.367Z,12.95
2022-09-20T08:14:51.725Z,13.02
2022-09-20T08:15:50.817Z,13.07
2022-09-20T08:16:50.764Z,13.15
2022-09-20T08:17:50.684Z,13.15
2022-09-20T08:18:50.705Z,13.15
2022-09-20T08:19:50.693Z,13.15
2022-09-20T08:20:50.657Z,13.21
2022-09-20T08:21:50.668Z,13.21
2022-09-20T08:23:12.569Z,13.21
2022-09-20T08:23:51.650Z,13.24
2022-09-20T08:24:50.608Z,13.36
2022-09-20T08:25:50.598Z,13.51
2022-09-20T08:26:50.565Z,13.58
2022-09-20T08:27:50.565Z,13.58
2022-09-20T08:28:50.545Z,13.62
2022-09-20T08:29:50.538Z,13.51
2022-09-20T08:30:50.513Z,13.54
2022-09-20T08:31:50.528Z,13.56
2022-09-20T08:32:50.547Z,13.61
2022-09-20T08:33:50.478Z,13.65
2022-09-20T08:34:50.478Z,13.63
2022-09-20T08:35:50.471Z,13.67
2022-09-20T08:36:50.448Z,13.73
2022-09-20T08:37:50.860Z,13.84
2022-09-20T08:39:59.153Z,13.98
2022-09-20T08:40:51.388Z,13.92
2022-09-20T08:41:50.382Z,13.96
2022-09-20T08:42:50.376Z,13.96
2022-09-20T08:43:50.349Z,13.84
2022-09-20T08:44:57.781Z,13.87
2022-09-20T08:45:51.358Z,13.91
2022-09-20T08:46:50.319Z,13.87
2022-09-20T08:47:50.312Z,13.95
2022-09-20T08:48:50.280Z,13.89
2022-09-20T08:49:56.392Z,13.91
2022-09-20T08:50:51.250Z,13.96
2022-09-20T08:51:50.244Z,14.01
2022-09-20T08:52:50.246Z,14.01
2022-09-20T08:53:50.218Z,14.04
2022-09-20T08:54:50.198Z,14.06
2022-09-20T08:55:50.188Z,14.12
2022-09-20T08:56:50.176Z,14.25
2022-09-20T08:57:50.186Z,14.31
2022-09-20T08:58:50.160Z,14.39
2022-09-20T08:59:50.143Z,14.47
2022-09-20T09:00:50.154Z,14.49
2022-09-20T09:01:50.109Z,14.50
2022-09-20T09:02:50.140Z,14.53
2022-09-20T09:03:50.091Z,14.56
2022-09-20T09:04:50.073Z,14.54
2022-09-20T09:05:50.062Z,14.57
2022-09-20T09:06:50.070Z,14.54
2022-09-20T09:07:50.041Z,14.56
2022-09-20T09:08:50.018Z,14.49
2022-09-20T09:09:50.008Z,14.44
2022-09-20T09:10:49.979Z,14.46
2022-09-20T09:11:49.977Z,14.47
2022-09-20T09:12:49.972Z,14.47
2022-09-20T09:13:49.961Z,14.44
2022-09-20T09:14:49.949Z,14.39
2022-09-20T09:15:49.972Z,14.31
2022-09-20T09:16:49.997Z,14.27
2022-09-20T09:17:49.911Z,14.32
2022-09-20T09:18:49.909Z,14.43
2022-09-20T09:19:49.906Z,14.52
2022-09-20T09:20:49.869Z,14.50
2022-09-20T09:21:49.898Z,14.61
2022-09-20T09:22:49.830Z,14.52
2022-09-20T09:23:49.821Z,14.52
2022-09-20T09:24:49.811Z,14.53
2022-09-20T09:25:49.794Z,14.54
2022-09-20T09:26:49.771Z,14.60
2022-09-20T09:27:49.771Z,14.69
2022-09-20T09:28:49.760Z,14.80
2022-09-20T09:29:49.740Z,14.83
2022-09-20T09:30:49.745Z,14.81
2022-09-20T09:31:49.774Z,14.87
2022-09-20T09:32:49.714Z,14.86
2022-09-20T09:33:49.711Z,14.88
2022-09-20T09:34:49.743Z,14.87
2022-09-20T09:35:49.681Z,14.93
2022-09-20T09:36:49.662Z,14.88
2022-09-20T09:37:49.653Z,14.88
2022-09-20T09:38:49.630Z,14.91
2022-09-20T09:39:49.630Z,14.95
2022-09-20T09:40:49.601Z,15.03
2022-09-20T09:41:49.591Z,15.05
2022-09-20T09:42:49.624Z,15.11
2022-09-20T09:43:49.565Z,15.09
2022-09-20T09:44:49.562Z,15.06
2022-09-20T09:45:49.575Z,15.06
2022-09-20T09:46:49.522Z,15.21
2022-09-20T09:47:49.505Z,15.38
2022-09-20T09:48:49.505Z,15.35
2022-09-20T09:49:49.482Z,15.27
2022-09-20T09:50:49.480Z,15.13
2022-09-20T09:51:49.474Z,15.02
2022-09-20T09:52:49.446Z,14.99
2022-09-20T09:53:49.443Z,15.05
2022-09-20T09:54:49.425Z,15.01
2022-09-20T09:55:49.415Z,15.15
2022-09-20T09:56:49.405Z,15.35
2022-09-20T09:57:49.405Z,15.24
2022-09-20T09:58:49.375Z,15.30
2022-09-20T09:59:49.378Z,15.45
2022-09-20T10:00:49.371Z,15.48
2022-09-20T10:01:49.451Z,15.56
2022-09-20T10:02:49.352Z,15.48
2022-09-20T10:03:49.313Z,15.51
2022-09-20T10:04:49.294Z,15.60
2022-09-20T10:05:49.274Z,15.74
2022-09-20T10:06:52.251Z,15.89
2022-09-20T10:07:49.316Z,15.99
2022-09-20T10:08:49.237Z,16.16
2022-09-20T10:09:49.223Z,16.31
2022-09-20T10:10:49.237Z,16.27
2022-09-20T10:11:49.197Z,16.18
2022-09-20T10:12:49.195Z,15.99
2022-09-20T10:13:49.189Z,15.93
2022-09-20T10:14:49.167Z,16.07
2022-09-20T10:15:49.147Z,16.06
2022-09-20T10:16:49.159Z,16.18
2022-09-20T10:17:49.139Z,16.31
2022-09-20T10:18:49.113Z,16.38
2022-09-20T10:19:49.231Z,16.59
2022-09-20T10:20:49.086Z,16.88
2022-09-20T10:21:49.082Z,17.00
2022-09-20T10:23:14.747Z,16.96
2022-09-20T10:24:03.016Z,16.81
2022-09-20T10:24:51.640Z,16.83
2022-09-20T10:25:49.026Z,16.78
2022-09-20T10:26:49.087Z,16.88
2022-09-20T10:27:49.020Z,17.22
2022-09-20T10:28:49.017Z,17.10
2022-09-20T10:29:48.987Z,17.04
2022-09-20T10:30:49.007Z,17.04
2022-09-20T10:31:48.955Z,16.77
2022-09-20T10:32:48.930Z,16.70
2022-09-20T10:33:48.918Z,16.50
2022-09-20T10:34:48.900Z,16.37
2022-09-20T10:35:48.948Z,16.26
2022-09-20T10:36:48.884Z,16.06
2022-09-20T10:37:49.585Z,15.96
2022-09-20T10:38:48.858Z,15.76
2022-09-20T10:39:48.840Z,15.13
2022-09-20T10:40:48.829Z,14.62
2022-09-20T10:41:48.817Z,14.13
2022-09-20T10:42:48.804Z,13.88
2022-09-20T10:43:48.783Z,13.71
2022-09-20T10:44:48.771Z,13.41
2022-09-20T10:46:27.890Z,12.95
2022-09-20T10:46:49.828Z,12.75
2022-09-20T10:47:48.729Z,12.59
2022-09-20T10:48:48.717Z,12.54
2022-09-20T10:49:50.895Z,12.30
2022-09-20T10:50:48.730Z,12.05
2022-09-20T10:51:48.691Z,11.83
2022-09-20T10:52:48.692Z,11.53
2022-09-20T10:53:48.662Z,10.92
2022-09-20T10:54:48.652Z,10.39
2022-09-20T10:55:48.632Z,10.04
2022-09-20T10:56:48.638Z,9.88
2022-09-20T10:57:48.603Z,9.83
2022-09-20T10:58:48.610Z,9.94
2022-09-20T10:59:48.571Z,10.06
2022-09-20T11:00:48.644Z,10.07
2022-09-20T11:01:48.590Z,10.10
2022-09-20T11:02:48.576Z,10.14
2022-09-20T11:03:48.521Z,10.22
2022-09-20T11:04:48.517Z,10.28
2022-09-20T11:05:48.491Z,10.34
2022-09-20T11:06:48.502Z,10.44
2022-09-20T11:07:48.475Z,10.55
2022-09-20T11:08:48.480Z,10.65
2022-09-20T11:09:48.452Z,10.77
2022-09-20T11:10:48.450Z,10.86
2022-09-20T11:11:48.432Z,10.98
2022-09-20T11:12:48.430Z,11.09
2022-09-20T11:13:48.432Z,11.19
2022-09-20T11:14:48.528Z,11.24
2022-09-20T11:15:48.437Z,11.31
2022-09-20T11:16:48.617Z,11.44
2022-09-20T11:17:48.411Z,11.49
2022-09-20T11:18:48.442Z,11.53
2022-09-20T11:19:48.342Z,11.70
2022-09-20T11:20:48.310Z,11.97
2022-09-20T11:21:48.355Z,12.12
2022-09-20T11:22:48.392Z,12.19
2022-09-20T11:23:48.273Z,12.20
2022-09-20T11:24:48.264Z,12.13
2022-09-20T11:25:48.243Z,12.06
2022-09-20T11:26:48.264Z,11.96
2022-09-20T11:27:48.225Z,12.04
2022-09-20T11:28:48.203Z,12.13
2022-09-20T11:29:48.193Z,12.08
2022-09-20T11:30:48.181Z,11.90
2022-09-20T11:31:48.232Z,11.93
2022-09-20T11:32:48.151Z,11.74
2022-09-20T11:33:48.131Z,11.57
2022-09-20T11:34:48.134Z,11.52
2022-09-20T11:35:48.110Z,11.43
2022-09-20T11:36:48.102Z,11.38
2022-09-20T11:37:48.143Z,11.24
2022-09-20T11:38:52.867Z,11.19
2022-09-20T11:39:49.063Z,11.17
2022-09-20T11:40:48.073Z,11.19
2022-09-20T11:41:48.054Z,11.16
2022-09-20T11:42:48.023Z,11.17
2022-09-20T11:43:48.026Z,11.24
2022-09-20T11:44:48.002Z,11.16
2022-09-20T11:45:48.032Z,11.13
2022-09-20T11:46:47.972Z,11.14
2022-09-20T11:47:54.863Z,11.11
2022-09-20T11:48:48.969Z,11.09
2022-09-20T11:49:47.942Z,11.09
2022-09-20T11:50:47.945Z,11.01
2022-09-20T11:51:47.904Z,11.03
2022-09-20T11:52:47.895Z,10.99
2022-09-20T11:53:47.884Z,10.98
2022-09-20T11:54:47.883Z,10.96
2022-09-20T11:55:47.864Z,10.98
2022-09-20T11:56:47.891Z,10.94
2022-09-20T11:57:47.834Z,10.98
2022-09-20T11:58:47.832Z,10.99
2022-09-20T11:59:47.802Z,11.02
2022-09-20T12:00:47.843Z,11.01
2022-09-20T12:01:47.806Z,11.01
2022-09-20T12:02:47.898Z,11.02
2022-09-20T12:03:47.765Z,11.10
2022-09-20T12:04:47.755Z,11.17
2022-09-20T12:05:47.735Z,11.25
2022-09-20T12:06:47.734Z,11.25
2022-09-20T12:07:47.705Z,11.44
2022-09-20T12:08:47.695Z,11.57
2022-09-20T12:09:47.682Z,11.78
2022-09-20T12:10:47.665Z,12.04
2022-09-20T12:11:47.653Z,12.11
2022-09-20T12:12:47.651Z,12.15
2022-09-20T12:13:47.624Z,12.09
2022-09-20T12:14:47.614Z,12.08
2022-09-20T12:15:47.626Z,12.19
2022-09-20T12:16:47.666Z,12.38
2022-09-20T12:17:47.597Z,12.56
2022-09-20T12:18:47.566Z,12.56
2022-09-20T12:19:47.596Z,12.44
2022-09-20T12:20:47.541Z,12.42
2022-09-20T12:21:49.526Z,12.41
2022-09-20T12:22:47.517Z,12.39
2022-09-20T12:23:47.517Z,12.27
2022-09-20T12:24:47.494Z,12.23
2022-09-20T12:25:47.476Z,12.30
2022-09-20T12:26:47.504Z,12.33
2022-09-20T12:27:47.434Z,12.46
2022-09-20T12:28:47.476Z,12.70
2022-09-20T12:29:47.424Z,12.79
2022-09-20T12:30:47.425Z,12.93
2022-09-20T12:31:47.482Z,12.89
2022-09-20T12:32:47.375Z,12.79
2022-09-20T12:33:47.363Z,12.67
2022-09-20T12:34:47.366Z,12.57
2022-09-20T12:35:47.357Z,12.69
2022-09-20T12:36:47.338Z,12.79
2022-09-20T12:37:47.325Z,12.95
2022-09-20T12:38:47.376Z,13.03
2022-09-20T12:39:47.298Z,13.22
2022-09-20T12:40:47.288Z,13.36
2022-09-20T12:41:47.278Z,13.43
2022-09-20T12:42:47.247Z,13.51
2022-09-20T12:43:47.255Z,13.63
2022-09-20T12:44:47.217Z,13.73
2022-09-20T12:45:47.293Z,13.81
2022-09-20T12:46:47.206Z,13.89
2022-09-20T12:47:47.194Z,13.94
2022-09-20T12:48:47.175Z,13.88
2022-09-20T12:50:42.860Z,13.88
2022-09-20T12:51:42.830Z,13.91
2022-09-20T12:52:42.818Z,13.91
2022-09-20T12:53:42.834Z,14.01
2022-09-20T12:54:42.786Z,14.13
2022-09-20T12:55:42.775Z,14.20
2022-09-20T12:56:42.776Z,14.20
2022-09-20T12:57:42.749Z,14.19
2022-09-20T12:58:42.751Z,14.20
2022-09-20T12:59:42.726Z,14.35
2022-09-20T13:00:42.795Z,14.39
2022-09-20T13:01:42.750Z,14.34
2022-09-20T13:02:42.698Z,14.47
2022-09-20T13:03:42.689Z,14.61
2022-09-20T13:04:42.674Z,14.64
2022-09-20T13:05:42.660Z,14.64
2022-09-20T13:06:42.633Z,14.49
2022-09-20T13:07:43.853Z,14.61